sensor_id;sensor_type;location;lat;lon;timestamp;P1;durP1;ratioP1;P2;durP2;ratioP2
5831;SDS011;50943;51.448;7.646;2023-03-23T00:00:13;4.00;;;1.87;;
5831;SDS011;50943;51.448;7.646;2023-03-23T00:02:42;6.77;;;1.90;;
5831;SDS011;50943;51.448;7.646;2023-03-23T00:05:10;9.60;;;2.30;;
5831;SDS011;50943;51.448;7.646;2023-03-23T00:07:36;3.97;;;2.00;;
5831;SDS011;50943;51.448;7.646;2023-03-23T00:10:09;6.27;;;2.03;;
5831;SDS011;50943;51.448;7.646;2023-03-23T00:12:37;5.03;;;2.10;;
5831;SDS011;50943;51.448;7.646;2023-03-23T00:15:07;3.60;;;1.87;;
5831;SDS011;50943;51.448;7.646;2023-03-23T00:17:37;5.40;;;2.03;;
5831;SDS011;50943;51.448;7.646;2023-03-23T00:20:06;4.53;;;2.20;;
5831;SDS011;50943;51.448;7.646;2023-03-23T00:22:35;4.80;;;2.30;;
5831;SDS011;50943;51.448;7.646;2023-03-23T00:25:02;5.63;;;2.10;;
5831;SDS011;50943;51.448;7.646;2023-03-23T00:27:29;3.93;;;2.40;;
5831;SDS011;50943;51.448;7.646;2023-03-23T00:29:56;5.50;;;2.30;;
5831;SDS011;50943;51.448;7.646;2023-03-23T00:32:23;3.60;;;2.13;;
5831;SDS011;50943;51.448;7.646;2023-03-23T00:34:52;5.53;;;2.23;;
5831;SDS011;50943;51.448;7.646;2023-03-23T00:37:20;5.03;;;2.10;;
5831;SDS011;50943;51.448;7.646;2023-03-23T00:39:47;9.07;;;2.50;;
5831;SDS011;50943;51.448;7.646;2023-03-23T00:42:16;5.43;;;2.30;;
5831;SDS011;50943;51.448;7.646;2023-03-23T00:44:43;3.90;;;2.20;;
5831;SDS011;50943;51.448;7.646;2023-03-23T00:47:10;3.27;;;2.13;;
5831;SDS011;50943;51.448;7.646;2023-03-23T00:49:37;5.73;;;2.07;;
5831;SDS011;50943;51.448;7.646;2023-03-23T00:52:04;5.33;;;2.40;;
5831;SDS011;50943;51.448;7.646;2023-03-23T00:54:33;4.60;;;2.30;;
5831;SDS011;50943;51.448;7.646;2023-03-23T00:57:01;3.47;;;1.90;;
5831;SDS011;50943;51.448;7.646;2023-03-23T00:59:28;6.10;;;2.20;;
5831;SDS011;50943;51.448;7.646;2023-03-23T01:01:54;4.47;;;2.60;;
5831;SDS011;50943;51.448;7.646;2023-03-23T01:04:23;4.93;;;2.37;;
5831;SDS011;50943;51.448;7.646;2023-03-23T01:06:50;4.90;;;2.20;;
5831;SDS011;50943;51.448;7.646;2023-03-23T01:09:18;5.80;;;2.27;;
5831;SDS011;50943;51.448;7.646;2023-03-23T01:11:48;4.50;;;2.00;;
5831;SDS011;50943;51.448;7.646;2023-03-23T01:14:16;5.73;;;2.00;;
5831;SDS011;50943;51.448;7.646;2023-03-23T01:16:44;3.70;;;1.90;;
5831;SDS011;50943;51.448;7.646;2023-03-23T01:19:10;4.40;;;2.23;;
5831;SDS011;50943;51.448;7.646;2023-03-23T01:21:37;3.83;;;2.20;;
5831;SDS011;50943;51.448;7.646;2023-03-23T01:24:04;4.60;;;2.10;;
5831;SDS011;50943;51.448;7.646;2023-03-23T01:26:32;8.50;;;2.20;;
5831;SDS011;50943;51.448;7.646;2023-03-23T01:29:00;2.83;;;1.67;;
5831;SDS011;50943;51.448;7.646;2023-03-23T01:31:26;4.40;;;2.00;;
5831;SDS011;50943;51.448;7.646;2023-03-23T01:33:53;6.30;;;2.50;;
5831;SDS011;50943;51.448;7.646;2023-03-23T01:36:21;3.80;;;1.90;;
5831;SDS011;50943;51.448;7.646;2023-03-23T01:38:49;5.27;;;2.20;;
5831;SDS011;50943;51.448;7.646;2023-03-23T01:41:17;8.50;;;2.00;;
5831;SDS011;50943;51.448;7.646;2023-03-23T01:43:54;4.43;;;2.43;;
5831;SDS011;50943;51.448;7.646;2023-03-23T01:46:24;6.33;;;2.20;;
5831;SDS011;50943;51.448;7.646;2023-03-23T01:48:52;3.50;;;2.10;;
5831;SDS011;50943;51.448;7.646;2023-03-23T01:51:19;4.67;;;2.10;;
5831;SDS011;50943;51.448;7.646;2023-03-23T01:53:48;7.40;;;1.90;;
5831;SDS011;50943;51.448;7.646;2023-03-23T01:56:18;5.60;;;2.00;;
5831;SDS011;50943;51.448;7.646;2023-03-23T01:58:49;3.70;;;2.03;;
5831;SDS011;50943;51.448;7.646;2023-03-23T02:01:17;4.80;;;1.97;;
5831;SDS011;50943;51.448;7.646;2023-03-23T02:03:45;5.03;;;1.90;;
5831;SDS011;50943;51.448;7.646;2023-03-23T02:06:13;4.10;;;2.30;;
5831;SDS011;50943;51.448;7.646;2023-03-23T02:08:39;7.77;;;2.53;;
5831;SDS011;50943;51.448;7.646;2023-03-23T02:11:11;5.00;;;2.37;;
5831;SDS011;50943;51.448;7.646;2023-03-23T02:13:39;4.23;;;2.50;;
5831;SDS011;50943;51.448;7.646;2023-03-23T02:16:06;4.67;;;2.20;;
5831;SDS011;50943;51.448;7.646;2023-03-23T02:18:42;5.47;;;2.30;;
5831;SDS011;50943;51.448;7.646;2023-03-23T02:21:20;5.80;;;2.10;;
5831;SDS011;50943;51.448;7.646;2023-03-23T02:24:21;5.43;;;2.47;;
5831;SDS011;50943;51.448;7.646;2023-03-23T02:26:58;6.50;;;2.17;;
5831;SDS011;50943;51.448;7.646;2023-03-23T02:29:34;5.60;;;2.17;;
5831;SDS011;50943;51.448;7.646;2023-03-23T02:32:12;7.70;;;2.23;;
5831;SDS011;50943;51.448;7.646;2023-03-23T02:34:47;8.27;;;2.50;;
5831;SDS011;50943;51.448;7.646;2023-03-23T02:37:17;4.80;;;2.57;;
5831;SDS011;50943;51.448;7.646;2023-03-23T02:39:50;5.13;;;2.50;;
5831;SDS011;50943;51.448;7.646;2023-03-23T02:42:19;3.77;;;2.00;;
5831;SDS011;50943;51.448;7.646;2023-03-23T02:44:47;4.90;;;2.10;;
5831;SDS011;50943;51.448;7.646;2023-03-23T02:47:17;4.73;;;2.30;;
5831;SDS011;50943;51.448;7.646;2023-03-23T02:49:48;4.73;;;2.50;;
5831;SDS011;50943;51.448;7.646;2023-03-23T02:52:17;5.37;;;2.40;;
5831;SDS011;50943;51.448;7.646;2023-03-23T02:54:46;4.13;;;2.23;;
5831;SDS011;50943;51.448;7.646;2023-03-23T02:57:13;4.33;;;2.43;;
5831;SDS011;50943;51.448;7.646;2023-03-23T02:59:41;4.83;;;2.20;;
5831;SDS011;50943;51.448;7.646;2023-03-23T03:02:08;6.47;;;2.60;;
5831;SDS011;50943;51.448;7.646;2023-03-23T03:04:37;6.07;;;2.50;;
5831;SDS011;50943;51.448;7.646;2023-03-23T03:07:10;3.73;;;2.47;;
5831;SDS011;50943;51.448;7.646;2023-03-23T03:09:46;4.53;;;2.30;;
5831;SDS011;50943;51.448;7.646;2023-03-23T03:12:17;5.07;;;2.77;;
5831;SDS011;50943;51.448;7.646;2023-03-23T03:14:48;4.00;;;2.47;;
5831;SDS011;50943;51.448;7.646;2023-03-23T03:17:18;5.40;;;2.33;;
5831;SDS011;50943;51.448;7.646;2023-03-23T03:19:51;3.57;;;2.30;;
5831;SDS011;50943;51.448;7.646;2023-03-23T03:22:20;6.03;;;2.60;;
5831;SDS011;50943;51.448;7.646;2023-03-23T03:24:47;9.23;;;2.50;;
5831;SDS011;50943;51.448;7.646;2023-03-23T03:27:17;3.20;;;1.83;;
5831;SDS011;50943;51.448;7.646;2023-03-23T03:29:45;4.33;;;2.30;;
5831;SDS011;50943;51.448;7.646;2023-03-23T03:32:17;5.00;;;2.57;;
5831;SDS011;50943;51.448;7.646;2023-03-23T03:34:47;4.03;;;2.33;;
5831;SDS011;50943;51.448;7.646;2023-03-23T03:37:16;8.70;;;2.77;;
5831;SDS011;50943;51.448;7.646;2023-03-23T03:39:45;4.80;;;2.27;;
5831;SDS011;50943;51.448;7.646;2023-03-23T03:42:11;4.20;;;2.13;;
5831;SDS011;50943;51.448;7.646;2023-03-23T03:44:38;3.83;;;2.00;;
5831;SDS011;50943;51.448;7.646;2023-03-23T03:47:05;3.90;;;2.30;;
5831;SDS011;50943;51.448;7.646;2023-03-23T03:49:32;6.20;;;2.17;;
5831;SDS011;50943;51.448;7.646;2023-03-23T03:51:59;7.13;;;2.50;;
5831;SDS011;50943;51.448;7.646;2023-03-23T03:54:25;4.07;;;2.40;;
5831;SDS011;50943;51.448;7.646;2023-03-23T03:56:53;3.83;;;2.27;;
5831;SDS011;50943;51.448;7.646;2023-03-23T03:59:23;4.73;;;2.80;;
5831;SDS011;50943;51.448;7.646;2023-03-23T04:01:50;5.70;;;3.00;;
5831;SDS011;50943;51.448;7.646;2023-03-23T04:04:19;3.60;;;1.97;;
5831;SDS011;50943;51.448;7.646;2023-03-23T04:06:47;4.53;;;2.37;;
5831;SDS011;50943;51.448;7.646;2023-03-23T04:09:14;5.23;;;2.40;;
5831;SDS011;50943;51.448;7.646;2023-03-23T04:11:40;3.70;;;2.20;;
5831;SDS011;50943;51.448;7.646;2023-03-23T04:14:10;5.73;;;2.40;;
5831;SDS011;50943;51.448;7.646;2023-03-23T04:16:37;5.20;;;2.20;;
5831;SDS011;50943;51.448;7.646;2023-03-23T04:19:05;3.17;;;2.00;;
5831;SDS011;50943;51.448;7.646;2023-03-23T04:21:33;2.63;;;1.60;;
5831;SDS011;50943;51.448;7.646;2023-03-23T04:24:00;3.20;;;1.87;;
5831;SDS011;50943;51.448;7.646;2023-03-23T04:26:28;2.83;;;1.70;;
5831;SDS011;50943;51.448;7.646;2023-03-23T04:28:55;4.20;;;1.87;;
5831;SDS011;50943;51.448;7.646;2023-03-23T04:31:24;4.40;;;1.80;;
5831;SDS011;50943;51.448;7.646;2023-03-23T04:33:50;3.40;;;1.83;;
5831;SDS011;50943;51.448;7.646;2023-03-23T04:36:18;5.43;;;2.00;;
5831;SDS011;50943;51.448;7.646;2023-03-23T04:38:47;4.10;;;2.07;;
5831;SDS011;50943;51.448;7.646;2023-03-23T04:41:15;2.70;;;1.67;;
5831;SDS011;50943;51.448;7.646;2023-03-23T04:43:42;7.67;;;4.37;;
5831;SDS011;50943;51.448;7.646;2023-03-23T04:46:09;4.87;;;1.70;;
5831;SDS011;50943;51.448;7.646;2023-03-23T04:48:37;3.13;;;1.83;;
5831;SDS011;50943;51.448;7.646;2023-03-23T04:51:04;4.83;;;1.80;;
5831;SDS011;50943;51.448;7.646;2023-03-23T04:53:31;3.93;;;2.00;;
5831;SDS011;50943;51.448;7.646;2023-03-23T04:55:58;2.57;;;1.43;;
5831;SDS011;50943;51.448;7.646;2023-03-23T04:58:27;4.00;;;1.73;;
5831;SDS011;50943;51.448;7.646;2023-03-23T05:00:54;3.00;;;1.70;;
5831;SDS011;50943;51.448;7.646;2023-03-23T05:03:21;3.30;;;1.50;;
5831;SDS011;50943;51.448;7.646;2023-03-23T05:05:49;4.70;;;1.70;;
5831;SDS011;50943;51.448;7.646;2023-03-23T05:08:17;3.43;;;1.70;;
5831;SDS011;50943;51.448;7.646;2023-03-23T05:10:49;5.03;;;2.17;;
5831;SDS011;50943;51.448;7.646;2023-03-23T05:13:16;6.00;;;2.20;;
5831;SDS011;50943;51.448;7.646;2023-03-23T05:15:43;2.83;;;1.63;;
5831;SDS011;50943;51.448;7.646;2023-03-23T05:18:10;2.47;;;1.50;;
5831;SDS011;50943;51.448;7.646;2023-03-23T05:20:36;8.70;;;2.17;;
5831;SDS011;50943;51.448;7.646;2023-03-23T05:23:05;3.00;;;1.70;;
5831;SDS011;50943;51.448;7.646;2023-03-23T05:25:32;3.10;;;1.90;;
5831;SDS011;50943;51.448;7.646;2023-03-23T05:28:01;3.20;;;1.77;;
5831;SDS011;50943;51.448;7.646;2023-03-23T05:30:28;4.00;;;1.70;;
5831;SDS011;50943;51.448;7.646;2023-03-23T05:32:55;2.93;;;1.77;;
5831;SDS011;50943;51.448;7.646;2023-03-23T05:35:21;5.60;;;2.40;;
5831;SDS011;50943;51.448;7.646;2023-03-23T05:37:48;3.50;;;2.20;;
5831;SDS011;50943;51.448;7.646;2023-03-23T05:40:16;3.50;;;1.90;;
5831;SDS011;50943;51.448;7.646;2023-03-23T05:42:43;3.87;;;2.13;;
5831;SDS011;50943;51.448;7.646;2023-03-23T05:45:10;3.90;;;1.50;;
5831;SDS011;50943;51.448;7.646;2023-03-23T05:47:37;4.60;;;1.90;;
5831;SDS011;50943;51.448;7.646;2023-03-23T05:50:04;2.60;;;1.63;;
5831;SDS011;50943;51.448;7.646;2023-03-23T05:52:32;4.07;;;2.10;;
5831;SDS011;50943;51.448;7.646;2023-03-23T05:55:00;3.97;;;1.97;;
5831;SDS011;50943;51.448;7.646;2023-03-23T05:57:30;4.17;;;2.07;;
5831;SDS011;50943;51.448;7.646;2023-03-23T05:59:57;3.43;;;1.97;;
5831;SDS011;50943;51.448;7.646;2023-03-23T06:02:24;3.80;;;2.03;;
5831;SDS011;50943;51.448;7.646;2023-03-23T06:04:53;3.10;;;2.03;;
5831;SDS011;50943;51.448;7.646;2023-03-23T06:07:22;4.87;;;2.10;;
5831;SDS011;50943;51.448;7.646;2023-03-23T06:09:49;5.03;;;1.90;;
5831;SDS011;50943;51.448;7.646;2023-03-23T06:12:16;3.70;;;2.17;;
5831;SDS011;50943;51.448;7.646;2023-03-23T06:14:47;5.73;;;2.30;;
5831;SDS011;50943;51.448;7.646;2023-03-23T06:17:15;3.80;;;2.00;;
5831;SDS011;50943;51.448;7.646;2023-03-23T06:19:42;5.30;;;2.10;;
5831;SDS011;50943;51.448;7.646;2023-03-23T06:22:10;4.37;;;2.03;;
5831;SDS011;50943;51.448;7.646;2023-03-23T06:24:37;4.20;;;1.97;;
5831;SDS011;50943;51.448;7.646;2023-03-23T06:27:04;6.57;;;2.10;;
5831;SDS011;50943;51.448;7.646;2023-03-23T06:29:30;3.23;;;2.20;;
5831;SDS011;50943;51.448;7.646;2023-03-23T06:31:59;5.57;;;1.93;;
5831;SDS011;50943;51.448;7.646;2023-03-23T06:34:28;3.83;;;1.80;;
5831;SDS011;50943;51.448;7.646;2023-03-23T06:36:55;3.23;;;1.73;;
5831;SDS011;50943;51.448;7.646;2023-03-23T06:39:22;7.03;;;2.27;;
5831;SDS011;50943;51.448;7.646;2023-03-23T06:41:49;4.60;;;2.20;;
5831;SDS011;50943;51.448;7.646;2023-03-23T06:44:15;5.43;;;2.00;;
5831;SDS011;50943;51.448;7.646;2023-03-23T06:46:42;4.30;;;1.97;;
5831;SDS011;50943;51.448;7.646;2023-03-23T06:49:10;3.77;;;1.80;;
5831;SDS011;50943;51.448;7.646;2023-03-23T06:51:38;3.47;;;2.00;;
5831;SDS011;50943;51.448;7.646;2023-03-23T06:54:05;3.57;;;1.80;;
5831;SDS011;50943;51.448;7.646;2023-03-23T06:56:34;4.60;;;1.80;;
5831;SDS011;50943;51.448;7.646;2023-03-23T06:59:01;4.43;;;2.03;;
5831;SDS011;50943;51.448;7.646;2023-03-23T07:01:28;5.30;;;1.90;;
5831;SDS011;50943;51.448;7.646;2023-03-23T07:03:55;4.80;;;1.97;;
5831;SDS011;50943;51.448;7.646;2023-03-23T07:06:24;3.93;;;1.90;;
5831;SDS011;50943;51.448;7.646;2023-03-23T07:08:51;4.97;;;2.03;;
5831;SDS011;50943;51.448;7.646;2023-03-23T07:11:18;5.53;;;2.07;;
5831;SDS011;50943;51.448;7.646;2023-03-23T07:13:47;5.60;;;1.90;;
5831;SDS011;50943;51.448;7.646;2023-03-23T07:16:15;3.57;;;1.60;;
5831;SDS011;50943;51.448;7.646;2023-03-23T07:18:41;3.90;;;1.90;;
5831;SDS011;50943;51.448;7.646;2023-03-23T07:21:08;4.70;;;1.67;;
5831;SDS011;50943;51.448;7.646;2023-03-23T07:23:36;7.27;;;1.83;;
5831;SDS011;50943;51.448;7.646;2023-03-23T07:26:03;5.13;;;1.77;;
5831;SDS011;50943;51.448;7.646;2023-03-23T07:28:30;4.00;;;1.60;;
5831;SDS011;50943;51.448;7.646;2023-03-23T07:30:56;5.23;;;2.10;;
5831;SDS011;50943;51.448;7.646;2023-03-23T07:33:23;3.93;;;1.63;;
5831;SDS011;50943;51.448;7.646;2023-03-23T07:35:50;5.27;;;1.80;;
5831;SDS011;50943;51.448;7.646;2023-03-23T07:38:17;4.00;;;1.93;;
5831;SDS011;50943;51.448;7.646;2023-03-23T07:40:46;5.67;;;2.30;;
5831;SDS011;50943;51.448;7.646;2023-03-23T07:43:13;4.03;;;1.70;;
5831;SDS011;50943;51.448;7.646;2023-03-23T07:45:40;6.50;;;1.70;;
5831;SDS011;50943;51.448;7.646;2023-03-23T07:48:07;9.03;;;2.30;;
5831;SDS011;50943;51.448;7.646;2023-03-23T07:50:36;7.63;;;2.00;;
5831;SDS011;50943;51.448;7.646;2023-03-23T07:53:03;4.83;;;2.17;;
5831;SDS011;50943;51.448;7.646;2023-03-23T07:55:30;4.00;;;1.80;;
5831;SDS011;50943;51.448;7.646;2023-03-23T07:57:58;3.30;;;1.70;;
5831;SDS011;50943;51.448;7.646;2023-03-23T08:00:25;7.60;;;1.93;;
5831;SDS011;50943;51.448;7.646;2023-03-23T08:02:52;9.33;;;1.90;;
5831;SDS011;50943;51.448;7.646;2023-03-23T08:05:20;4.80;;;1.77;;
5831;SDS011;50943;51.448;7.646;2023-03-23T08:07:48;4.37;;;1.60;;
5831;SDS011;50943;51.448;7.646;2023-03-23T08:10:17;3.50;;;1.23;;
5831;SDS011;50943;51.448;7.646;2023-03-23T08:12:44;2.80;;;1.63;;
5831;SDS011;50943;51.448;7.646;2023-03-23T08:15:13;6.23;;;2.00;;
5831;SDS011;50943;51.448;7.646;2023-03-23T08:17:41;3.80;;;1.67;;
5831;SDS011;50943;51.448;7.646;2023-03-23T08:20:08;3.47;;;1.60;;
5831;SDS011;50943;51.448;7.646;2023-03-23T08:22:38;4.53;;;1.70;;
5831;SDS011;50943;51.448;7.646;2023-03-23T08:25:05;4.23;;;1.57;;
5831;SDS011;50943;51.448;7.646;2023-03-23T08:27:34;4.90;;;2.20;;
5831;SDS011;50943;51.448;7.646;2023-03-23T08:30:00;3.53;;;1.70;;
5831;SDS011;50943;51.448;7.646;2023-03-23T08:32:28;3.50;;;1.70;;
5831;SDS011;50943;51.448;7.646;2023-03-23T08:34:56;3.87;;;1.60;;
5831;SDS011;50943;51.448;7.646;2023-03-23T08:37:23;5.70;;;1.80;;
5831;SDS011;50943;51.448;7.646;2023-03-23T08:39:50;3.67;;;1.40;;
5831;SDS011;50943;51.448;7.646;2023-03-23T08:42:17;2.63;;;1.40;;
5831;SDS011;50943;51.448;7.646;2023-03-23T08:44:44;6.40;;;1.60;;
5831;SDS011;50943;51.448;7.646;2023-03-23T08:47:11;7.40;;;1.53;;
5831;SDS011;50943;51.448;7.646;2023-03-23T08:49:39;3.20;;;1.40;;
5831;SDS011;50943;51.448;7.646;2023-03-23T08:52:07;6.10;;;1.70;;
5831;SDS011;50943;51.448;7.646;2023-03-23T08:54:34;4.00;;;1.40;;
5831;SDS011;50943;51.448;7.646;2023-03-23T08:57:01;4.53;;;1.50;;
5831;SDS011;50943;51.448;7.646;2023-03-23T08:59:28;3.40;;;1.33;;
5831;SDS011;50943;51.448;7.646;2023-03-23T09:01:55;4.60;;;1.70;;
5831;SDS011;50943;51.448;7.646;2023-03-23T09:04:21;2.80;;;1.30;;
5831;SDS011;50943;51.448;7.646;2023-03-23T09:06:52;3.20;;;1.30;;
5831;SDS011;50943;51.448;7.646;2023-03-23T09:09:19;4.80;;;1.70;;
5831;SDS011;50943;51.448;7.646;2023-03-23T09:11:46;6.00;;;1.80;;
5831;SDS011;50943;51.448;7.646;2023-03-23T09:14:12;3.03;;;1.50;;
5831;SDS011;50943;51.448;7.646;2023-03-23T09:16:39;4.17;;;1.80;;
5831;SDS011;50943;51.448;7.646;2023-03-23T09:19:08;4.50;;;1.60;;
5831;SDS011;50943;51.448;7.646;2023-03-23T09:21:35;3.87;;;1.67;;
5831;SDS011;50943;51.448;7.646;2023-03-23T09:24:04;3.90;;;1.40;;
5831;SDS011;50943;51.448;7.646;2023-03-23T09:26:32;4.83;;;1.73;;
5831;SDS011;50943;51.448;7.646;2023-03-23T09:28:59;4.73;;;1.60;;
5831;SDS011;50943;51.448;7.646;2023-03-23T09:31:25;3.20;;;1.63;;
5831;SDS011;50943;51.448;7.646;2023-03-23T09:33:53;4.80;;;1.80;;
5831;SDS011;50943;51.448;7.646;2023-03-23T09:36:22;8.13;;;1.87;;
5831;SDS011;50943;51.448;7.646;2023-03-23T09:38:50;5.07;;;1.90;;
5831;SDS011;50943;51.448;7.646;2023-03-23T09:41:29;5.50;;;1.73;;
5831;SDS011;50943;51.448;7.646;2023-03-23T09:44:06;7.10;;;1.87;;
5831;SDS011;50943;51.448;7.646;2023-03-23T09:46:46;5.63;;;2.03;;
5831;SDS011;50943;51.448;7.646;2023-03-23T09:49:17;9.50;;;1.97;;
5831;SDS011;50943;51.448;7.646;2023-03-23T09:51:46;6.47;;;2.27;;
5831;SDS011;50943;51.448;7.646;2023-03-23T09:54:18;5.43;;;1.80;;
5831;SDS011;50943;51.448;7.646;2023-03-23T09:56:49;4.90;;;1.70;;
5831;SDS011;50943;51.448;7.646;2023-03-23T09:59:19;4.57;;;1.73;;
5831;SDS011;50943;51.448;7.646;2023-03-23T10:01:47;11.30;;;2.00;;
5831;SDS011;50943;51.448;7.646;2023-03-23T10:04:22;6.87;;;1.87;;
5831;SDS011;50943;51.448;7.646;2023-03-23T10:06:54;9.53;;;2.70;;
5831;SDS011;50943;51.448;7.646;2023-03-23T10:09:23;9.23;;;2.30;;
5831;SDS011;50943;51.448;7.646;2023-03-23T10:11:56;6.93;;;1.67;;
5831;SDS011;50943;51.448;7.646;2023-03-23T10:14:44;4.87;;;1.83;;
5831;SDS011;50943;51.448;7.646;2023-03-23T10:17:19;11.40;;;2.00;;
5831;SDS011;50943;51.448;7.646;2023-03-23T10:19:51;4.73;;;1.80;;
5831;SDS011;50943;51.448;7.646;2023-03-23T10:22:22;5.70;;;2.07;;
5831;SDS011;50943;51.448;7.646;2023-03-23T10:24:55;6.83;;;1.93;;
5831;SDS011;50943;51.448;7.646;2023-03-23T10:27:29;3.70;;;1.60;;
5831;SDS011;50943;51.448;7.646;2023-03-23T10:30:01;8.33;;;1.77;;
5831;SDS011;50943;51.448;7.646;2023-03-23T10:32:38;5.50;;;1.77;;
5831;SDS011;50943;51.448;7.646;2023-03-23T10:35:10;9.03;;;2.00;;
5831;SDS011;50943;51.448;7.646;2023-03-23T10:37:39;6.37;;;1.70;;
5831;SDS011;50943;51.448;7.646;2023-03-23T10:40:12;12.87;;;2.57;;
5831;SDS011;50943;51.448;7.646;2023-03-23T10:42:41;4.43;;;1.60;;
5831;SDS011;50943;51.448;7.646;2023-03-23T10:45:11;7.47;;;1.67;;
5831;SDS011;50943;51.448;7.646;2023-03-23T10:47:43;10.80;;;1.90;;
5831;SDS011;50943;51.448;7.646;2023-03-23T10:50:13;8.10;;;1.60;;
5831;SDS011;50943;51.448;7.646;2023-03-23T10:52:42;10.03;;;1.90;;
5831;SDS011;50943;51.448;7.646;2023-03-23T10:55:10;7.73;;;2.07;;
5831;SDS011;50943;51.448;7.646;2023-03-23T10:57:39;7.50;;;1.53;;
5831;SDS011;50943;51.448;7.646;2023-03-23T11:00:17;6.90;;;1.97;;
5831;SDS011;50943;51.448;7.646;2023-03-23T11:02:45;8.43;;;1.93;;
5831;SDS011;50943;51.448;7.646;2023-03-23T11:05:15;6.70;;;3.00;;
5831;SDS011;50943;51.448;7.646;2023-03-23T11:07:48;5.90;;;2.40;;
5831;SDS011;50943;51.448;7.646;2023-03-23T11:10:20;5.63;;;2.40;;
5831;SDS011;50943;51.448;7.646;2023-03-23T11:12:52;4.23;;;2.30;;
5831;SDS011;50943;51.448;7.646;2023-03-23T11:15:27;6.47;;;2.00;;
5831;SDS011;50943;51.448;7.646;2023-03-23T11:17:56;3.17;;;1.50;;
5831;SDS011;50943;51.448;7.646;2023-03-23T11:20:24;3.67;;;1.13;;
5831;SDS011;50943;51.448;7.646;2023-03-23T11:22:53;2.70;;;1.10;;
5831;SDS011;50943;51.448;7.646;2023-03-23T11:25:20;4.40;;;1.30;;
5831;SDS011;50943;51.448;7.646;2023-03-23T11:27:47;3.07;;;1.47;;
5831;SDS011;50943;51.448;7.646;2023-03-23T11:30:19;5.10;;;1.67;;
5831;SDS011;50943;51.448;7.646;2023-03-23T11:32:52;5.83;;;3.17;;
5831;SDS011;50943;51.448;7.646;2023-03-23T11:35:22;4.97;;;3.20;;
5831;SDS011;50943;51.448;7.646;2023-03-23T11:37:50;6.90;;;3.60;;
5831;SDS011;50943;51.448;7.646;2023-03-23T11:40:18;7.90;;;3.80;;
5831;SDS011;50943;51.448;7.646;2023-03-23T11:42:48;5.33;;;3.97;;
5831;SDS011;50943;51.448;7.646;2023-03-23T11:45:20;7.80;;;4.10;;
5831;SDS011;50943;51.448;7.646;2023-03-23T11:47:56;10.70;;;4.30;;
5831;SDS011;50943;51.448;7.646;2023-03-23T11:50:31;7.50;;;4.67;;
5831;SDS011;50943;51.448;7.646;2023-03-23T11:53:01;5.40;;;3.23;;
5831;SDS011;50943;51.448;7.646;2023-03-23T11:55:33;4.70;;;3.50;;
5831;SDS011;50943;51.448;7.646;2023-03-23T11:58:07;5.03;;;3.20;;
5831;SDS011;50943;51.448;7.646;2023-03-23T12:00:37;5.10;;;3.50;;
5831;SDS011;50943;51.448;7.646;2023-03-23T12:03:10;8.17;;;3.43;;
5831;SDS011;50943;51.448;7.646;2023-03-23T12:05:43;6.00;;;3.60;;
5831;SDS011;50943;51.448;7.646;2023-03-23T12:08:16;4.60;;;3.27;;
5831;SDS011;50943;51.448;7.646;2023-03-23T12:10:50;6.70;;;3.10;;
5831;SDS011;50943;51.448;7.646;2023-03-23T12:13:35;6.07;;;2.93;;
5831;SDS011;50943;51.448;7.646;2023-03-23T12:16:22;4.90;;;2.83;;
5831;SDS011;50943;51.448;7.646;2023-03-23T12:18:56;6.07;;;2.90;;
5831;SDS011;50943;51.448;7.646;2023-03-23T12:21:28;6.17;;;2.67;;
5831;SDS011;50943;51.448;7.646;2023-03-23T12:24:02;3.30;;;1.87;;
5831;SDS011;50943;51.448;7.646;2023-03-23T12:26:32;4.77;;;2.37;;
5831;SDS011;50943;51.448;7.646;2023-03-23T12:29:07;5.20;;;2.37;;
5831;SDS011;50943;51.448;7.646;2023-03-23T12:31:47;3.97;;;2.07;;
5831;SDS011;50943;51.448;7.646;2023-03-23T12:34:23;6.90;;;2.20;;
5831;SDS011;50943;51.448;7.646;2023-03-23T12:36:57;5.80;;;2.60;;
5831;SDS011;50943;51.448;7.646;2023-03-23T12:39:41;4.20;;;2.67;;
5831;SDS011;50943;51.448;7.646;2023-03-23T12:42:16;6.10;;;2.77;;
5831;SDS011;50943;51.448;7.646;2023-03-23T12:44:48;4.20;;;2.10;;
5831;SDS011;50943;51.448;7.646;2023-03-23T12:47:26;5.43;;;2.30;;
5831;SDS011;50943;51.448;7.646;2023-03-23T12:49:59;4.03;;;2.23;;
5831;SDS011;50943;51.448;7.646;2023-03-23T12:52:28;3.50;;;2.20;;
5831;SDS011;50943;51.448;7.646;2023-03-23T12:54:59;6.63;;;2.33;;
5831;SDS011;50943;51.448;7.646;2023-03-23T12:57:31;4.47;;;2.33;;
5831;SDS011;50943;51.448;7.646;2023-03-23T13:00:01;3.30;;;2.27;;
5831;SDS011;50943;51.448;7.646;2023-03-23T13:02:37;4.60;;;2.87;;
5831;SDS011;50943;51.448;7.646;2023-03-23T13:05:08;4.30;;;2.10;;
5831;SDS011;50943;51.448;7.646;2023-03-23T13:10:25;4.80;;;3.03;;
5831;SDS011;50943;51.448;7.646;2023-03-23T13:12:53;3.67;;;2.50;;
5831;SDS011;50943;51.448;7.646;2023-03-23T13:15:22;5.20;;;3.40;;
5831;SDS011;50943;51.448;7.646;2023-03-23T13:18:11;4.37;;;2.93;;
5831;SDS011;50943;51.448;7.646;2023-03-23T13:20:46;4.23;;;2.83;;
5831;SDS011;50943;51.448;7.646;2023-03-23T13:23:21;8.00;;;2.70;;
5831;SDS011;50943;51.448;7.646;2023-03-23T13:25:50;6.53;;;3.30;;
5831;SDS011;50943;51.448;7.646;2023-03-23T13:28:18;4.03;;;2.80;;
5831;SDS011;50943;51.448;7.646;2023-03-23T13:30:58;6.73;;;3.00;;
5831;SDS011;50943;51.448;7.646;2023-03-23T13:33:29;10.50;;;4.13;;
5831;SDS011;50943;51.448;7.646;2023-03-23T13:36:07;5.67;;;3.43;;
5831;SDS011;50943;51.448;7.646;2023-03-23T13:38:36;4.87;;;3.27;;
5831;SDS011;50943;51.448;7.646;2023-03-23T13:41:10;7.73;;;4.03;;
5831;SDS011;50943;51.448;7.646;2023-03-23T13:43:38;6.60;;;3.77;;
5831;SDS011;50943;51.448;7.646;2023-03-23T13:46:07;8.03;;;4.73;;
5831;SDS011;50943;51.448;7.646;2023-03-23T13:48:42;7.77;;;4.63;;
5831;SDS011;50943;51.448;7.646;2023-03-23T13:51:26;9.07;;;5.30;;
5831;SDS011;50943;51.448;7.646;2023-03-23T13:54:06;10.50;;;5.53;;
5831;SDS011;50943;51.448;7.646;2023-03-23T13:56:47;6.00;;;4.37;;
5831;SDS011;50943;51.448;7.646;2023-03-23T13:59:28;7.30;;;4.37;;
5831;SDS011;50943;51.448;7.646;2023-03-23T14:04:57;6.40;;;4.37;;
5831;SDS011;50943;51.448;7.646;2023-03-23T14:10:24;8.10;;;5.20;;
5831;SDS011;50943;51.448;7.646;2023-03-23T14:12:52;9.33;;;5.13;;
5831;SDS011;50943;51.448;7.646;2023-03-23T14:15:22;12.00;;;7.30;;
5831;SDS011;50943;51.448;7.646;2023-03-23T14:17:57;13.13;;;7.90;;
5831;SDS011;50943;51.448;7.646;2023-03-23T14:20:29;22.77;;;9.90;;
5831;SDS011;50943;51.448;7.646;2023-03-23T14:23:00;13.53;;;7.97;;
5831;SDS011;50943;51.448;7.646;2023-03-23T14:25:27;11.50;;;7.40;;
5831;SDS011;50943;51.448;7.646;2023-03-23T14:27:56;12.70;;;7.30;;
5831;SDS011;50943;51.448;7.646;2023-03-23T14:30:24;13.13;;;7.53;;
5831;SDS011;50943;51.448;7.646;2023-03-23T14:32:52;12.83;;;7.30;;
5831;SDS011;50943;51.448;7.646;2023-03-23T14:35:21;11.60;;;7.13;;
5831;SDS011;50943;51.448;7.646;2023-03-23T14:37:50;11.53;;;7.57;;
5831;SDS011;50943;51.448;7.646;2023-03-23T14:40:18;13.50;;;6.73;;
5831;SDS011;50943;51.448;7.646;2023-03-23T14:42:45;11.23;;;7.90;;
5831;SDS011;50943;51.448;7.646;2023-03-23T14:45:12;12.93;;;8.23;;
5831;SDS011;50943;51.448;7.646;2023-03-23T14:47:42;14.17;;;7.13;;
5831;SDS011;50943;51.448;7.646;2023-03-23T14:50:21;11.40;;;7.43;;
5831;SDS011;50943;51.448;7.646;2023-03-23T14:52:51;10.53;;;7.03;;
5831;SDS011;50943;51.448;7.646;2023-03-23T14:55:20;11.10;;;6.43;;
5831;SDS011;50943;51.448;7.646;2023-03-23T14:57:47;9.20;;;6.17;;
5831;SDS011;50943;51.448;7.646;2023-03-23T15:00:15;8.97;;;5.63;;
5831;SDS011;50943;51.448;7.646;2023-03-23T15:02:45;11.93;;;6.30;;
5831;SDS011;50943;51.448;7.646;2023-03-23T15:05:15;11.23;;;5.47;;
5831;SDS011;50943;51.448;7.646;2023-03-23T15:07:47;10.37;;;6.00;;
5831;SDS011;50943;51.448;7.646;2023-03-23T15:10:17;8.17;;;4.83;;
5831;SDS011;50943;51.448;7.646;2023-03-23T15:12:47;11.57;;;3.97;;
5831;SDS011;50943;51.448;7.646;2023-03-23T15:15:18;4.20;;;2.20;;
5831;SDS011;50943;51.448;7.646;2023-03-23T15:17:47;4.70;;;2.37;;
5831;SDS011;50943;51.448;7.646;2023-03-23T15:20:19;5.63;;;2.60;;
5831;SDS011;50943;51.448;7.646;2023-03-23T15:22:50;5.97;;;2.83;;